Time;durP1;ratioP1;P1;durP2;ratioP2;P2;SDS_P1;SDS_P2;PMS_P1;PMS_P2;Temp;Humidity;BMP_temperature;BMP_pressure;BME280_temperature;BME280_humidity;BME280_pressure;Samples;Min_cycle;Max_cycle;Signal;HPM_P1;HPM_P2
2022/05/07 00:01:42;;;;;;;7.80;3.42;;;17.20;59.70;;;;;;10090628;28;20116;-63
2022/05/07 00:06:32;;;;;;;6.60;3.72;;;17.10;60.00;;;;;;10088683;28;20402;-67
2022/05/07 00:11:23;;;;;;;6.43;3.25;;;17.10;60.10;;;;;;10108289;28;20033;-66
2022/05/07 00:21:23;;;;;;;8.60;3.90;;;17.10;60.50;;;;;;10096688;28;20549;-63
2022/05/07 00:26:14;;;;;;;3.15;2.67;;;16.80;60.70;;;;;;10089858;28;20063;-63
2022/05/07 00:31:04;;;;;;;4.57;2.53;;;16.70;61.20;;;;;;10093428;28;20151;-63
2022/05/07 00:35:55;;;;;;;5.95;2.35;;;16.50;61.40;;;;;;10100500;28;20029;-65
2022/05/07 00:40:46;;;;;;;4.53;2.22;;;16.50;61.70;;;;;;10102089;28;20040;-62
2022/05/07 00:45:36;;;;;;;7.20;2.30;;;16.60;61.50;;;;;;10101551;28;20170;-66
2022/05/07 00:55:38;;;;;;;5.65;2.30;;;16.50;61.80;;;;;;10096925;28;20032;-65
2022/05/07 01:00:29;;;;;;;5.80;2.33;;;16.40;61.80;;;;;;10107633;28;20047;-63
2022/05/07 01:05:19;;;;;;;6.45;2.53;;;16.40;62.00;;;;;;10098033;28;20025;-64
2022/05/07 01:10:10;;;;;;;5.28;2.85;;;16.20;62.10;;;;;;10110397;28;20044;-63
2022/05/07 01:15:01;;;;;;;4.47;2.30;;;16.20;62.30;;;;;;10101020;28;20119;-65
2022/05/07 01:19:53;;;;;;;3.30;2.30;;;16.20;62.10;;;;;;10112666;28;20115;-65
2022/05/07 01:24:43;;;;;;;6.18;3.67;;;16.10;62.40;;;;;;10103452;28;20029;-63
2022/05/07 01:29:34;;;;;;;6.70;4.70;;;16.10;62.70;;;;;;10093841;28;20045;-63
2022/05/07 01:34:25;;;;;;;7.40;4.40;;;15.70;63.40;;;;;;10086928;28;20021;-68
2022/05/07 01:39:15;;;;;;;7.63;4.95;;;15.90;63.80;;;;;;10087428;28;20071;-66
2022/05/07 01:44:06;;;;;;;6.38;4.07;;;16.00;63.80;;;;;;10090388;28;20044;-62
2022/05/07 01:48:57;;;;;;;8.82;5.70;;;15.60;64.80;;;;;;10093075;28;20103;-64
2022/05/07 01:53:48;;;;;;;8.98;4.90;;;15.50;65.70;;;;;;10098151;28;20117;-67
2022/05/07 01:58:38;;;;;;;9.02;4.43;;;15.60;65.80;;;;;;10092745;28;20033;-64
2022/05/07 02:03:30;;;;;;;6.05;4.40;;;15.70;66.40;;;;;;10113817;28;20017;-65
2022/05/07 02:08:21;;;;;;;6.93;4.13;;;15.50;67.10;;;;;;10117904;28;20088;-63
2022/05/07 02:13:11;;;;;;;10.18;4.60;;;15.40;68.00;;;;;;10090322;28;20079;-64
2022/05/07 02:18:02;;;;;;;6.47;3.72;;;15.20;68.20;;;;;;10099459;28;20017;-63
2022/05/07 02:22:57;;;;;;;7.57;3.90;;;15.20;69.10;;;;;;10094657;28;20490;-64
2022/05/07 02:27:47;;;;;;;5.63;3.35;;;15.30;69.50;;;;;;10107042;28;20118;-64
2022/05/07 02:32:38;;;;;;;5.05;3.22;;;15.30;69.90;;;;;;10126491;28;20324;-63
2022/05/07 02:37:29;;;;;;;4.32;3.03;;;15.30;70.50;;;;;;10096390;28;20028;-63
2022/05/07 02:42:39;;;;;;;4.85;3.20;;;15.20;70.80;;;;;;10090605;28;20033;-66
2022/05/07 02:47:30;;;;;;;5.35;3.03;;;15.40;70.80;;;;;;10091040;28;20112;-65
2022/05/07 02:52:21;;;;;;;4.80;2.83;;;15.30;71.20;;;;;;10092267;28;20233;-66
2022/05/07 02:57:12;;;;;;;4.68;3.58;;;15.10;71.90;;;;;;10095408;28;20417;-65
2022/05/07 03:02:02;;;;;;;7.72;2.92;;;14.90;72.20;;;;;;10092514;28;20079;-64
2022/05/07 03:06:53;;;;;;;6.25;2.85;;;14.90;72.60;;;;;;10094766;28;20060;-64
2022/05/07 03:11:44;;;;;;;3.97;2.80;;;14.80;72.90;;;;;;10101893;28;20059;-65
2022/05/07 03:16:38;;;;;;;4.40;3.10;;;14.80;73.00;;;;;;10092450;28;20036;-65
2022/05/07 03:21:29;;;;;;;6.30;3.45;;;14.90;73.20;;;;;;10095096;28;20048;-64
2022/05/07 03:26:22;;;;;;;4.80;2.95;;;14.80;73.60;;;;;;10109674;28;20024;-65
2022/05/07 03:31:13;;;;;;;4.97;3.03;;;14.70;74.00;;;;;;10103121;28;20044;-65
2022/05/07 03:36:04;;;;;;;7.90;2.90;;;14.60;74.50;;;;;;10090526;28;20029;-63
2022/05/07 03:40:55;;;;;;;5.85;3.08;;;14.70;74.70;;;;;;10090037;28;20039;-64
2022/05/07 03:45:45;;;;;;;6.32;3.70;;;14.90;74.30;;;;;;10097820;28;20277;-64
2022/05/07 03:50:36;;;;;;;7.57;4.05;;;14.70;75.10;;;;;;10096861;28;20087;-64
2022/05/07 03:55:27;;;;;;;3.88;3.35;;;14.40;75.60;;;;;;10106278;28;20719;-64
2022/05/07 04:00:18;;;;;;;5.95;3.40;;;14.40;75.90;;;;;;10099645;28;20044;-64
2022/05/07 04:05:08;;;;;;;7.88;4.13;;;14.50;75.90;;;;;;10101494;28;20033;-64
2022/05/07 04:09:59;;;;;;;4.93;4.10;;;14.30;76.30;;;;;;10101289;28;20449;-63
2022/05/07 04:14:50;;;;;;;7.55;3.25;;;14.10;76.90;;;;;;10106807;28;20052;-64
2022/05/07 04:19:40;;;;;;;4.10;2.53;;;14.10;77.40;;;;;;10104590;28;20025;-63
2022/05/07 04:24:33;;;;;;;4.88;2.53;;;14.20;77.40;;;;;;10114292;28;20037;-65
2022/05/07 04:29:24;;;;;;;5.80;2.33;;;14.30;77.30;;;;;;10118391;28;20040;-64
2022/05/07 04:34:14;;;;;;;4.55;2.70;;;14.30;77.70;;;;;;10101253;28;20037;-65
2022/05/07 04:39:06;;;;;;;5.22;2.50;;;14.20;77.90;;;;;;10098039;28;20386;-65
2022/05/07 04:43:57;;;;;;;4.53;2.78;;;14.20;78.30;;;;;;10098937;28;20353;-65
2022/05/07 04:48:47;;;;;;;3.47;2.17;;;14.20;78.10;;;;;;10097051;28;20032;-66
2022/05/07 04:53:38;;;;;;;2.88;2.38;;;14.20;78.40;;;;;;10106336;28;20075;-66
2022/05/07 04:58:29;;;;;;;5.97;2.90;;;14.20;78.90;;;;;;10095788;28;20035;-65
2022/05/07 05:03:20;;;;;;;3.17;2.50;;;14.10;79.20;;;;;;10096349;28;20597;-64
2022/05/07 05:08:11;;;;;;;4.50;2.45;;;14.00;79.50;;;;;;10098094;28;20099;-64
2022/05/07 05:13:01;;;;;;;4.50;2.85;;;14.00;79.70;;;;;;10101175;28;20094;-68
2022/05/07 05:17:52;;;;;;;3.67;2.58;;;14.30;79.30;;;;;;10099006;28;20081;-64
2022/05/07 05:22:49;;;;;;;3.63;2.42;;;14.20;79.50;;;;;;10104350;28;20370;-63
2022/05/07 05:27:40;;;;;;;4.60;2.55;;;14.20;79.60;;;;;;10091664;28;20028;-63
2022/05/07 05:32:30;;;;;;;4.07;2.90;;;14.20;80.00;;;;;;10094758;28;20045;-64
2022/05/07 05:37:21;;;;;;;4.50;2.90;;;14.20;80.00;;;;;;10098171;28;20021;-65
2022/05/07 05:42:12;;;;;;;4.00;2.38;;;14.20;79.90;;;;;;10102893;28;20029;-63
2022/05/07 05:47:04;;;;;;;4.28;2.90;;;14.20;80.40;;;;;;10101881;28;20854;-63
2022/05/07 05:51:54;;;;;;;3.60;2.67;;;14.30;80.30;;;;;;10102403;28;20086;-63
2022/05/07 05:56:45;;;;;;;5.22;3.15;;;14.40;80.30;;;;;;10101708;28;20100;-65
2022/05/07 06:01:36;;;;;;;3.67;2.70;;;14.40;80.40;;;;;;10093705;28;20098;-63
2022/05/07 06:06:27;;;;;;;5.05;2.40;;;14.50;80.40;;;;;;10094811;28;20092;-63
2022/05/07 06:11:17;;;;;;;8.50;3.58;;;14.50;80.50;;;;;;10099008;28;20040;-63
2022/05/07 06:16:08;;;;;;;7.30;3.38;;;14.60;80.20;;;;;;10099642;28;20044;-64
2022/05/07 06:21:01;;;;;;;6.00;3.60;;;14.60;80.10;;;;;;10102291;28;20364;-64
2022/05/07 06:31:01;;;;;;;5.65;3.45;;;14.90;80.40;;;;;;10099268;28;20101;-64
2022/05/07 06:35:51;;;;;;;4.40;3.08;;;15.00;80.30;;;;;;10091398;28;20098;-64
2022/05/07 06:40:42;;;;;;;7.35;3.65;;;15.10;80.30;;;;;;10092350;28;20024;-64
2022/05/07 06:45:33;;;;;;;8.77;3.15;;;15.10;80.20;;;;;;10092532;28;20029;-64
2022/05/07 06:50:24;;;;;;;4.88;3.00;;;15.20;80.10;;;;;;10099137;28;20032;-64
2022/05/07 06:55:17;;;;;;;7.07;4.05;;;15.40;80.30;;;;;;10092319;28;20029;-64
2022/05/07 07:00:10;;;;;;;6.65;3.35;;;15.60;80.00;;;;;;10091177;28;20025;-64
2022/05/07 07:05:02;;;;;;;5.18;2.97;;;15.50;80.20;;;;;;10092536;28;20290;-65
2022/05/07 07:09:53;;;;;;;4.35;3.67;;;15.70;79.90;;;;;;10093822;28;20029;-66
2022/05/07 07:14:43;;;;;;;4.43;3.78;;;15.80;80.00;;;;;;10093271;28;20455;-64
2022/05/07 07:19:34;;;;;;;6.32;3.35;;;15.90;79.70;;;;;;10091563;28;20100;-64
2022/05/07 07:24:25;;;;;;;4.80;2.95;;;16.20;79.40;;;;;;10095661;28;20036;-66
2022/05/07 07:29:16;;;;;;;5.20;3.55;;;16.20;79.50;;;;;;10088450;28;20028;-65
2022/05/07 07:34:06;;;;;;;5.07;2.55;;;16.30;79.00;;;;;;10091293;28;20037;-63
2022/05/07 07:38:58;;;;;;;4.78;2.95;;;16.40;78.80;;;;;;10093007;28;20021;-64
2022/05/07 07:43:48;;;;;;;4.65;3.30;;;16.70;78.40;;;;;;10104209;28;20033;-63
2022/05/07 07:48:39;;;;;;;6.47;4.35;;;16.70;78.50;;;;;;10104804;28;20028;-66
2022/05/07 07:53:30;;;;;;;5.93;3.13;;;16.80;78.20;;;;;;10098514;28;20053;-63
2022/05/07 07:58:21;;;;;;;5.22;2.78;;;17.10;77.80;;;;;;10100428;28;20491;-64
2022/05/07 08:03:14;;;;;;;4.32;2.88;;;17.20;77.40;;;;;;10099521;28;20032;-65
2022/05/07 08:13:15;;;;;;;4.13;2.88;;;17.20;77.20;;;;;;10102082;28;20060;-66
2022/05/07 08:18:06;;;;;;;6.88;3.30;;;17.40;77.00;;;;;;10102670;28;20362;-64
2022/05/07 08:22:56;;;;;;;3.60;3.10;;;17.60;76.60;;;;;;10098300;28;20345;-63
2022/05/07 08:27:47;;;;;;;6.22;3.30;;;17.80;76.50;;;;;;10104422;28;20037;-66
2022/05/07 08:32:38;;;;;;;6.40;3.15;;;17.90;76.20;;;;;;10102640;28;20055;-65
2022/05/07 08:37:29;;;;;;;7.10;3.85;;;18.00;76.10;;;;;;10107858;28;20059;-65
2022/05/07 08:42:19;;;;;;;4.65;3.25;;;18.00;76.20;;;;;;10109503;28;20048;-64
2022/05/07 08:47:10;;;;;;;4.43;3.03;;;18.30;75.70;;;;;;10116139;28;20025;-66
2022/05/07 08:52:02;;;;;;;4.28;2.60;;;18.40;75.50;;;;;;10097356;28;20518;-63
2022/05/07 08:56:53;;;;;;;3.95;2.55;;;18.50;75.40;;;;;;10100776;28;20032;-64
2022/05/07 09:01:44;;;;;;;4.25;3.05;;;18.60;75.20;;;;;;10095495;28;20111;-65
2022/05/07 09:06:36;;;;;;;2.72;2.35;;;18.70;74.70;;;;;;10093058;28;20514;-71
2022/05/07 09:11:37;;;;;;;3.47;2.45;;;18.80;74.50;;;;;;10091740;28;20063;-71
2022/05/07 09:16:39;;;;;;;2.88;2.40;;;18.90;74.10;;;;;;10102547;28;20045;-71
2022/05/07 09:21:32;;;;;;;3.53;1.85;;;18.90;73.80;;;;;;10101182;28;20032;-71
2022/05/07 09:26:34;;;;;;;3.42;1.90;;;19.10;73.50;;;;;;10100614;28;20119;-71
2022/05/07 09:31:26;;;;;;;3.75;2.38;;;19.20;73.00;;;;;;10093197;28;20044;-70
2022/05/07 09:36:16;;;;;;;3.63;2.53;;;19.30;72.90;;;;;;10099111;28;20037;-71
2022/05/07 09:41:17;;;;;;;5.70;2.13;;;19.50;72.50;;;;;;10102302;28;20455;-71
2022/05/07 09:46:08;;;;;;;4.15;2.17;;;19.50;71.90;;;;;;10095808;28;20388;-71
2022/05/07 09:50:59;;;;;;;2.97;2.15;;;19.70;71.90;;;;;;10099055;28;20048;-71
2022/05/07 10:01:21;;;;;;;3.70;1.92;;;19.90;70.50;;;;;;10094960;28;20146;-72
2022/05/07 10:06:18;;;;;;;2.40;1.67;;;20.00;68.60;;;;;;10095313;28;20029;-70
2022/05/07 10:11:09;;;;;;;1.80;1.50;;;20.10;69.00;;;;;;10100481;28;20102;-70
2022/05/07 10:16:03;;;;;;;3.78;1.75;;;20.30;69.00;;;;;;10098810;28;20538;-70
2022/05/07 10:20:56;;;;;;;3.07;1.70;;;20.40;67.90;;;;;;10096911;28;20021;-71
2022/05/07 10:25:56;;;;;;;2.08;1.35;;;20.50;68.10;;;;;;10093943;28;20029;-71
2022/05/07 10:30:54;;;;;;;4.55;1.63;;;20.60;67.10;;;;;;10101035;28;20069;-71
2022/05/07 10:35:53;;;;;;;2.13;1.92;;;20.80;65.30;;;;;;10095461;28;20029;-71
2022/05/07 10:40:58;;;;;;;2.97;1.67;;;20.70;64.60;;;;;;10099107;28;20409;-71
2022/05/07 10:45:54;;;;;;;1.98;1.30;;;20.70;62.20;;;;;;10114228;28;20054;-70
2022/05/07 10:50:58;;;;;;;4.25;1.38;;;20.70;63.20;;;;;;10110868;28;20071;-71
2022/05/07 10:55:52;;;;;;;3.00;1.40;;;20.80;62.40;;;;;;10097579;28;20025;-71
2022/05/07 11:00:50;;;;;;;6.63;2.03;;;21.00;62.30;;;;;;10090936;28;20028;-71
2022/05/07 11:05:41;;;;;;;2.33;1.50;;;21.20;61.80;;;;;;10116666;28;20491;-71
2022/05/07 11:10:32;;;;;;;2.95;1.38;;;21.30;61.30;;;;;;10093568;28;20048;-71
2022/05/07 11:15:27;;;;;;;3.17;1.60;;;21.30;60.60;;;;;;10092784;28;20057;-72
2022/05/07 11:20:35;;;;;;;2.30;1.67;;;21.30;59.40;;;;;;10093781;28;20025;-72
2022/05/07 11:25:27;;;;;;;2.65;1.50;;;21.20;59.10;;;;;;10095652;28;20170;-70
2022/05/07 11:30:18;;;;;;;2.45;1.83;;;21.30;59.00;;;;;;10092008;28;20441;-71
2022/05/07 11:35:10;;;;;;;4.15;1.98;;;21.30;58.10;;;;;;10096551;28;20099;-71
2022/05/07 11:40:00;;;;;;;3.35;2.53;;;21.40;57.80;;;;;;10092589;28;20089;-70
2022/05/07 11:50:07;;;;;;;5.40;3.92;;;21.60;56.70;;;;;;10091968;28;20315;-72
2022/05/07 11:55:05;;;;;;;1.53;1.37;;;21.90;56.60;;;;;;10094105;28;20075;-71
2022/05/07 11:59:56;;;;;;;2.42;1.73;;;21.80;55.80;;;;;;10091824;28;20480;-72
2022/05/07 12:05:00;;;;;;;1.83;1.35;;;22.00;55.60;;;;;;10094725;28;20021;-72
2022/05/07 12:09:50;;;;;;;2.78;1.58;;;22.10;55.20;;;;;;10109452;28;20052;-71
2022/05/07 12:14:41;;;;;;;2.42;1.40;;;22.00;55.00;;;;;;10094764;28;20087;-73
2022/05/07 12:19:35;;;;;;;2.65;1.58;;;22.10;55.10;;;;;;10091007;28;20097;-73
2022/05/07 12:29:51;;;;;;;2.85;1.52;;;23.00;54.20;;;;;;10097430;28;20040;-72
2022/05/07 12:34:42;;;;;;;2.45;1.50;;;23.20;54.00;;;;;;10096358;28;20040;-73
2022/05/07 12:39:33;;;;;;;1.75;1.10;;;24.00;53.50;;;;;;10096928;28;20029;-72
2022/05/07 12:44:24;;;;;;;3.92;1.27;;;24.10;53.20;;;;;;10096033;28;20036;-74
2022/05/07 12:49:15;;;;;;;1.77;1.23;;;24.20;52.20;;;;;;10098650;28;20036;-70
2022/05/07 12:54:06;;;;;;;1.95;1.20;;;24.60;51.70;;;;;;10095542;28;20051;-71
2022/05/07 12:58:57;;;;;;;3.92;1.67;;;25.30;50.60;;;;;;10103857;28;20029;-72
2022/05/07 13:03:47;;;;;;;2.20;1.25;;;26.10;49.00;;;;;;10102047;28;20418;-71
2022/05/07 13:08:38;;;;;;;3.30;1.88;;;27.50;47.50;;;;;;10105323;28;20025;-73
2022/05/07 13:13:29;;;;;;;1.70;1.20;;;28.50;46.00;;;;;;10108337;28;20080;-72
2022/05/07 13:18:24;;;;;;;3.65;1.50;;;29.00;44.50;;;;;;10111077;28;20033;-72
2022/05/07 13:23:15;;;;;;;2.25;1.60;;;29.30;43.40;;;;;;10102449;28;20060;-71
2022/05/07 13:28:06;;;;;;;2.55;1.10;;;30.00;42.50;;;;;;10105026;28;20024;-71
2022/05/07 13:32:58;;;;;;;1.63;1.10;;;30.10;41.10;;;;;;10116507;28;20186;-72
2022/05/07 13:37:48;;;;;;;1.90;1.58;;;30.40;40.30;;;;;;10110016;28;20321;-71
2022/05/07 13:42:40;;;;;;;1.40;1.10;;;32.00;39.70;;;;;;10094483;28;20033;-72
2022/05/07 13:47:31;;;;;;;4.85;1.30;;;32.40;39.00;;;;;;10094067;28;20510;-72
2022/05/07 13:52:21;;;;;;;1.55;1.05;;;32.00;38.10;;;;;;10094446;28;20751;-72
2022/05/07 13:57:12;;;;;;;2.87;1.10;;;32.60;37.90;;;;;;10096805;28;20021;-72
2022/05/07 14:02:03;;;;;;;3.13;1.80;;;33.40;37.50;;;;;;10093894;28;20067;-72
2022/05/07 14:06:59;;;;;;;2.22;1.23;;;34.00;36.10;;;;;;10111398;28;20276;-72
2022/05/07 14:11:50;;;;;;;2.58;1.10;;;33.80;36.50;;;;;;10092749;28;20336;-72
2022/05/07 14:16:42;;;;;;;2.00;1.60;;;33.80;36.00;;;;;;10109970;28;20052;-72
2022/05/07 14:21:34;;;;;;;1.77;1.30;;;34.00;35.60;;;;;;10103764;28;20025;-71
2022/05/07 14:26:25;;;;;;;2.05;1.50;;;33.40;35.10;;;;;;10098093;28;20444;-70
2022/05/07 14:31:16;;;;;;;3.47;1.60;;;32.20;35.00;;;;;;10098148;28;20068;-72
2022/05/07 14:36:07;;;;;;;3.30;1.40;;;32.90;34.70;;;;;;10097602;28;20100;-72
2022/05/07 14:40:57;;;;;;;2.72;1.10;;;33.20;34.10;;;;;;10098502;28;20419;-73
2022/05/07 14:45:48;;;;;;;5.37;1.33;;;32.60;34.00;;;;;;10093517;28;20037;-72
2022/05/07 14:50:39;;;;;;;3.57;1.37;;;32.30;33.90;;;;;;10091497;28;20567;-72
2022/05/07 14:55:29;;;;;;;2.03;1.30;;;32.80;33.40;;;;;;10092185;28;20054;-70
2022/05/07 15:00:20;;;;;;;3.23;1.50;;;31.80;34.40;;;;;;10092528;28;20300;-66
2022/05/07 15:05:13;;;;;;;2.83;1.00;;;31.80;34.60;;;;;;10093289;28;20025;-64
2022/05/07 15:15:18;;;;;;;2.60;1.50;;;31.30;34.10;;;;;;10088830;28;20063;-66
2022/05/07 15:20:09;;;;;;;2.40;1.50;;;31.10;34.10;;;;;;10089255;28;20439;-69
2022/05/07 15:25:00;;;;;;;2.63;1.50;;;31.30;33.90;;;;;;10089378;28;20120;-76
2022/05/07 15:29:50;;;;;;;1.87;1.40;;;31.40;33.60;;;;;;10089177;28;20498;-68
2022/05/07 15:39:51;;;;;;;3.00;1.30;;;32.20;33.50;;;;;;10093082;28;20056;-71
2022/05/07 15:44:42;;;;;;;2.55;1.23;;;31.70;33.20;;;;;;10088224;28;20032;-77
2022/05/07 15:49:35;;;;;;;1.42;1.23;;;31.30;32.60;;;;;;10091523;28;20037;-77
2022/05/07 15:54:26;;;;;;;1.63;1.50;;;32.20;32.20;;;;;;10092828;28;20033;-68
2022/05/07 15:59:17;;;;;;;1.13;1.02;;;32.40;31.60;;;;;;10090361;28;20021;-65
2022/05/07 16:04:07;;;;;;;2.78;2.17;;;32.80;31.20;;;;;;10097455;28;20029;-69
2022/05/07 16:08:58;;;;;;;2.50;1.47;;;33.30;30.90;;;;;;10102177;28;20305;-68
2022/05/07 16:13:48;;;;;;;1.80;1.20;;;34.50;30.70;;;;;;10099403;28;20052;-67
2022/05/07 16:18:39;;;;;;;3.23;2.07;;;34.70;30.40;;;;;;10109667;28;20024;-64
2022/05/07 16:28:39;;;;;;;1.88;1.27;;;35.80;30.00;;;;;;10096976;28;20108;-68
2022/05/07 16:33:30;;;;;;;3.23;1.53;;;35.50;29.90;;;;;;10100215;28;20119;-67
2022/05/07 16:38:20;;;;;;;2.33;1.40;;;35.40;29.80;;;;;;10100992;28;20143;-72
2022/05/07 16:43:11;;;;;;;1.77;1.27;;;35.90;29.50;;;;;;10098563;28;20345;-69
2022/05/07 16:48:02;;;;;;;2.07;1.30;;;35.20;30.00;;;;;;10096530;28;20031;-65
2022/05/07 16:52:52;;;;;;;2.30;1.60;;;34.80;29.50;;;;;;10096386;28;20538;-65
2022/05/07 16:57:43;;;;;;;2.00;1.60;;;34.80;29.30;;;;;;10097465;28;20053;-65
2022/05/07 17:02:34;;;;;;;3.33;1.43;;;34.80;29.40;;;;;;10097932;28;20040;-66
2022/05/07 17:07:25;;;;;;;2.93;1.77;;;35.70;28.90;;;;;;10090250;28;20028;-67
2022/05/07 17:12:16;;;;;;;3.17;1.60;;;36.30;28.80;;;;;;10097020;28;20037;-68
2022/05/07 17:17:07;;;;;;;3.37;1.70;;;35.90;29.20;;;;;;10105380;28;20033;-67
2022/05/07 17:21:58;;;;;;;2.50;1.40;;;35.70;29.30;;;;;;10089846;28;20414;-66
2022/05/07 17:26:49;;;;;;;1.45;1.20;;;35.20;29.60;;;;;;10095367;28;20116;-67
2022/05/07 17:31:39;;;;;;;2.60;1.60;;;32.80;30.30;;;;;;10089645;28;20049;-66
2022/05/07 17:36:31;;;;;;;2.63;1.73;;;28.80;32.90;;;;;;10092185;28;20020;-66
2022/05/07 17:41:23;;;;;;;3.30;1.63;;;27.10;33.70;;;;;;10091501;28;20479;-66
2022/05/07 17:46:14;;;;;;;1.60;1.25;;;26.40;33.80;;;;;;10090269;28;20562;-67
2022/05/07 17:51:04;;;;;;;4.63;1.40;;;25.80;34.40;;;;;;10091422;28;20043;-64
2022/05/07 17:55:55;;;;;;;2.47;1.30;;;25.30;34.90;;;;;;10091711;28;20361;-67
2022/05/07 18:00:47;;;;;;;3.83;1.35;;;25.00;35.10;;;;;;10094491;28;20068;-64
2022/05/07 18:05:38;;;;;;;4.05;1.73;;;24.80;35.80;;;;;;10103530;28;20079;-74
2022/05/07 18:10:29;;;;;;;5.05;2.10;;;24.60;36.10;;;;;;10100491;28;20045;-75
2022/05/07 18:15:19;;;;;;;3.00;1.98;;;24.30;36.80;;;;;;10098227;28;20143;-76
2022/05/07 18:20:11;;;;;;;3.65;1.73;;;24.30;36.70;;;;;;10099346;28;20025;-76
2022/05/07 18:25:02;;;;;;;5.55;1.25;;;24.30;36.90;;;;;;10094515;28;20020;-74
2022/05/07 18:29:53;;;;;;;3.53;1.50;;;24.10;37.20;;;;;;10098316;28;20040;-77
2022/05/07 18:34:43;;;;;;;2.20;1.42;;;24.00;37.60;;;;;;10103725;28;20032;-75
2022/05/07 18:44:43;;;;;;;2.75;1.80;;;23.70;38.30;;;;;;10095769;28;20082;-78
2022/05/07 18:49:34;;;;;;;2.47;1.58;;;23.70;38.20;;;;;;10091669;28;20389;-74
2022/05/07 18:54:25;;;;;;;2.92;1.98;;;23.40;38.70;;;;;;10093891;28;20033;-73
2022/05/07 18:59:16;;;;;;;4.70;2.97;;;23.20;39.00;;;;;;10092946;28;20441;-74
2022/05/07 19:04:07;;;;;;;4.63;2.28;;;23.20;39.10;;;;;;10093914;28;20033;-75
2022/05/07 19:09:01;;;;;;;5.60;3.92;;;23.20;39.20;;;;;;10105730;28;20020;-76
2022/05/07 19:13:55;;;;;;;3.70;2.60;;;23.00;39.40;;;;;;10098184;28;20321;-77
2022/05/07 19:18:46;;;;;;;4.33;2.57;;;23.00;39.70;;;;;;10105459;28;20051;-75
2022/05/07 19:23:36;;;;;;;4.93;2.38;;;22.90;39.80;;;;;;10104066;28;20521;-78
2022/05/07 19:28:28;;;;;;;6.35;2.00;;;22.90;40.00;;;;;;10091102;28;20539;-78
2022/05/07 19:33:20;;;;;;;3.22;1.98;;;22.70;40.40;;;;;;10094768;28;20044;-76
2022/05/07 19:38:11;;;;;;;3.70;2.50;;;22.60;40.50;;;;;;10101610;28;20032;-73
2022/05/07 19:43:01;;;;;;;2.63;2.20;;;22.60;40.70;;;;;;10100981;28;20036;-73
2022/05/07 19:47:52;;;;;;;4.88;2.55;;;22.50;40.90;;;;;;10106936;28;20025;-74
2022/05/07 19:52:43;;;;;;;7.25;2.33;;;22.50;41.00;;;;;;10102036;28;20051;-71
2022/05/07 19:57:34;;;;;;;10.63;3.72;;;22.50;41.20;;;;;;10103784;28;20515;-71
2022/05/07 20:02:26;;;;;;;3.00;2.05;;;22.40;41.40;;;;;;10102462;28;20333;-75
2022/05/07 20:07:17;;;;;;;4.28;1.85;;;22.30;41.70;;;;;;10107011;28;20159;-75
2022/05/07 20:12:14;;;;;;;2.33;1.83;;;22.30;41.80;;;;;;10112314;28;20518;-73
2022/05/07 20:17:06;;;;;;;2.58;1.65;;;22.20;42.00;;;;;;10103195;28;20047;-71
2022/05/07 20:21:58;;;;;;;5.75;2.65;;;22.10;42.30;;;;;;10107224;28;20028;-74
2022/05/07 20:26:50;;;;;;;3.42;2.15;;;22.00;42.40;;;;;;10099086;28;20472;-70
2022/05/07 20:31:40;;;;;;;3.45;2.22;;;22.00;42.60;;;;;;10101713;28;20040;-71
2022/05/07 20:36:31;;;;;;;2.60;1.58;;;21.90;42.80;;;;;;10101209;28;20032;-73
2022/05/07 20:41:22;;;;;;;2.67;2.20;;;21.90;42.90;;;;;;10098147;28;20108;-73
2022/05/07 20:46:28;;;;;;;6.03;2.35;;;21.90;43.10;;;;;;10096891;28;20044;-70
2022/05/07 20:51:19;;;;;;;4.18;2.22;;;21.90;43.80;;;;;;10098252;28;20388;-68
2022/05/07 20:56:10;;;;;;;2.33;1.85;;;21.70;43.30;;;;;;10099460;28;20021;-68
2022/05/07 21:01:06;;;;;;;3.90;1.92;;;21.70;43.50;;;;;;10098874;28;20067;-69
2022/05/07 21:05:57;;;;;;;4.93;2.25;;;21.60;43.70;;;;;;10099554;28;20178;-71
2022/05/07 21:10:47;;;;;;;6.65;3.45;;;21.50;43.70;;;;;;10102777;28;20277;-71
2022/05/07 21:15:38;;;;;;;5.97;2.20;;;21.40;43.90;;;;;;10095376;28;20049;-70
2022/05/07 21:20:29;;;;;;;5.22;2.38;;;21.30;44.10;;;;;;10096361;28;20029;-70
2022/05/07 21:30:30;;;;;;;3.25;2.00;;;21.10;44.60;;;;;;10094191;28;20143;-69
2022/05/07 21:35:21;;;;;;;2.10;1.77;;;21.00;45.10;;;;;;10100366;28;20613;-71
2022/05/07 21:40:12;;;;;;;3.92;2.10;;;20.80;45.50;;;;;;10089574;28;20036;-71
2022/05/07 21:45:02;;;;;;;3.38;2.13;;;20.70;45.80;;;;;;10090321;28;20041;-70
2022/05/07 21:49:53;;;;;;;14.13;2.60;;;20.60;46.10;;;;;;10108541;28;20028;-69
2022/05/07 21:54:44;;;;;;;3.78;2.33;;;20.60;46.40;;;;;;10094310;28;20550;-69
2022/05/07 21:59:38;;;;;;;4.05;2.33;;;20.40;47.10;;;;;;10095867;28;20021;-72
2022/05/07 22:04:28;;;;;;;3.50;2.20;;;20.40;47.20;;;;;;10094122;28;20543;-70
2022/05/07 22:09:19;;;;;;;3.50;2.20;;;20.20;47.50;;;;;;10094158;28;20114;-69
2022/05/07 22:14:09;;;;;;;8.25;2.72;;;20.30;47.70;;;;;;10099117;28;20048;-70
2022/05/07 22:19:00;;;;;;;5.70;3.33;;;20.10;48.10;;;;;;10101345;28;20017;-72
2022/05/07 22:23:52;;;;;;;8.25;3.03;;;19.90;48.30;;;;;;10092090;28;20466;-71
2022/05/07 22:28:44;;;;;;;3.53;2.60;;;19.90;48.80;;;;;;10092271;28;20033;-69
2022/05/07 22:33:35;;;;;;;5.38;2.40;;;19.90;48.80;;;;;;10091417;28;20126;-70
2022/05/07 22:38:26;;;;;;;3.83;2.53;;;19.90;49.30;;;;;;10098456;28;20045;-70
2022/05/07 22:43:17;;;;;;;5.18;2.45;;;19.70;49.90;;;;;;10099358;28;20415;-70
2022/05/07 22:48:08;;;;;;;3.28;2.25;;;19.60;50.50;;;;;;10101747;28;20056;-69
2022/05/07 22:52:59;;;;;;;3.05;2.17;;;19.70;50.60;;;;;;10103340;28;20052;-68
2022/05/07 22:57:49;;;;;;;3.75;2.22;;;19.50;50.80;;;;;;10104087;28;20029;-68
2022/05/07 23:02:40;;;;;;;3.67;2.35;;;19.60;50.90;;;;;;10090922;28;20416;-70
2022/05/07 23:07:31;;;;;;;4.72;2.58;;;19.50;51.10;;;;;;10091399;28;20045;-71
2022/05/07 23:12:22;;;;;;;3.03;2.20;;;19.50;51.20;;;;;;10095672;28;20092;-68
2022/05/07 23:17:13;;;;;;;4.13;2.30;;;19.60;51.10;;;;;;10093389;28;20028;-69
2022/05/07 23:22:05;;;;;;;2.88;2.40;;;19.50;51.80;;;;;;10101076;28;20037;-68
2022/05/07 23:26:56;;;;;;;3.33;2.50;;;19.20;52.40;;;;;;10089129;28;20024;-68
2022/05/07 23:31:46;;;;;;;4.85;2.50;;;19.10;52.60;;;;;;10089816;28;20048;-71
2022/05/07 23:36:37;;;;;;;3.30;2.35;;;19.20;52.70;;;;;;10093993;28;20025;-67
2022/05/07 23:41:27;;;;;;;4.57;2.38;;;19.20;52.70;;;;;;10091052;28;20065;-70
2022/05/07 23:46:18;;;;;;;4.18;2.38;;;19.10;53.00;;;;;;10090359;28;20523;-69
2022/05/07 23:51:09;;;;;;;3.20;2.65;;;18.80;53.50;;;;;;10089353;28;20403;-69
2022/05/07 23:56:01;;;;;;;3.92;2.58;;;18.80;53.60;;;;;;10105481;28;20036;-69
